Decoded Metar for EICK (CORK in IRELAND) (IATA:ORK) | Meteo·Mobile Aviation Weather
aviador You're here:

EICK Decoded Metar

CORK in IRELAND
Report Time2019-04-25 21:30:00
UTC Time2019-04-25 21:43:05
Flight Rules vfr VFR
Wind170° at 04 kt
W.Decomp.*RWY 17: 4.0 kt HW 0.3 kt RCW
RWY 25: 1.0 kt HW 3.9 kt LCW
Visibility9999 m
Phenomena:N/A
Clouds:Few 016 Hf
Broken 150 Hf
Ceiling15,000 ft
Temp08°C (ISA -6)
Dew Point08°C (100% RH)
AAT6.1°C
QNH0997 hPa
Density Alt476 ft
Elevation502 ft
Report Wrong Elevation
Raw Report
METAR EICK 252130Z 17004KT 9999 FEW016 BKN150 08/08 Q0997 NOSIG=

Extra information for EICK:More info

Metar Taf Metar & Taf Last 4 Metars F.Rules Stats Wind Profile Meteogram Temp Stats Airport Information Weather charts Add Link Nearby VenuesMetar ALERT Operation Metar Decoded Social comments